ANA217 RJTT-RJFK
Flight info
| Callsign | ANA217 |
|---|---|
| Flight time | 1h 27m |
| Altitude | 38000 |
| Route | LAXAS Y56 TOHME Y54 TURFY Y24 SUC Y757 SPICA |
| Aircraft | B77W/H-SDE1E2E3FGHIJ2J3J4J5M1RWXY/LB1D1 |
Departure
| Time | 2026-05-08 11:29 |
|---|---|
| Airport | Tokyo Haneda International Airport (RJTT) |
Arrival
| Time | 2026-05-08 12:57 |
|---|---|
| Airport | Kagoshima Airport (RJFK) |
| Time | Latitude | Longitude | Altitude | Speed | Heading |
|---|---|---|---|---|---|
| 2026-05-08 10:59 | 35.55222 | 139.78917 | 27 ft | 0 kts | 243° |
| 2026-05-08 11:13 | 35.55225 | 139.78924 | 27 ft | 2 kts | 242° |
| 2026-05-08 11:13 | 35.55231 | 139.78937 | 27 ft | 2 kts | 242° |
| 2026-05-08 11:13 | 35.55237 | 139.78951 | 27 ft | 2 kts | 255° |
| 2026-05-08 11:14 | 35.55240 | 139.78966 | 26 ft | 2 kts | 266° |
| 2026-05-08 11:14 | 35.55240 | 139.78982 | 27 ft | 2 kts | 281° |
| 2026-05-08 11:14 | 35.55236 | 139.78996 | 25 ft | 2 kts | 296° |
| 2026-05-08 11:14 | 35.55230 | 139.79010 | 26 ft | 2 kts | 305° |
| 2026-05-08 11:15 | 35.55222 | 139.79021 | 26 ft | 2 kts | 329° |
| 2026-05-08 11:15 | 35.55220 | 139.79022 | 26 ft | 0 kts | 330° |
| 2026-05-08 11:20 | 35.55229 | 139.79016 | 24 ft | 5 kts | 330° |
| 2026-05-08 11:20 | 35.55264 | 139.78991 | 27 ft | 6 kts | 329° |
| 2026-05-08 11:20 | 35.55304 | 139.78962 | 27 ft | 7 kts | 330° |
| 2026-05-08 11:20 | 35.55348 | 139.78935 | 27 ft | 7 kts | 343° |
| 2026-05-08 11:21 | 35.55396 | 139.78945 | 27 ft | 7 kts | 32° |
| 2026-05-08 11:21 | 35.55427 | 139.78992 | 27 ft | 7 kts | 55° |
| 2026-05-08 11:21 | 35.55466 | 139.79030 | 28 ft | 7 kts | 23° |
| 2026-05-08 11:21 | 35.55516 | 139.79027 | 28 ft | 7 kts | 342° |
| 2026-05-08 11:22 | 35.55562 | 139.79001 | 28 ft | 7 kts | 333° |
| 2026-05-08 11:22 | 35.55607 | 139.78970 | 28 ft | 8 kts | 329° |
| 2026-05-08 11:22 | 35.55657 | 139.78934 | 28 ft | 11 kts | 329° |
| 2026-05-08 11:22 | 35.55749 | 139.78867 | 28 ft | 17 kts | 329° |
| 2026-05-08 11:23 | 35.55850 | 139.78795 | 28 ft | 17 kts | 330° |
| 2026-05-08 11:23 | 35.55951 | 139.78724 | 28 ft | 17 kts | 330° |
| 2026-05-08 11:23 | 35.56050 | 139.78653 | 28 ft | 17 kts | 330° |
| 2026-05-08 11:23 | 35.56151 | 139.78581 | 28 ft | 17 kts | 330° |
| 2026-05-08 11:24 | 35.56250 | 139.78511 | 28 ft | 14 kts | 330° |
| 2026-05-08 11:24 | 35.56315 | 139.78463 | 28 ft | 10 kts | 324° |
| 2026-05-08 11:24 | 35.56335 | 139.78384 | 28 ft | 10 kts | 258° |
| 2026-05-08 11:24 | 35.56304 | 139.78305 | 28 ft | 10 kts | 240° |
| 2026-05-08 11:25 | 35.56268 | 139.78230 | 28 ft | 10 kts | 239° |
| 2026-05-08 11:25 | 35.56232 | 139.78154 | 28 ft | 10 kts | 240° |
| 2026-05-08 11:25 | 35.56191 | 139.78068 | 28 ft | 15 kts | 240° |
| 2026-05-08 11:25 | 35.56135 | 139.77947 | 28 ft | 17 kts | 240° |
| 2026-05-08 11:26 | 35.56076 | 139.77823 | 28 ft | 17 kts | 240° |
| 2026-05-08 11:26 | 35.56017 | 139.77699 | 28 ft | 17 kts | 240° |
| 2026-05-08 11:26 | 35.55958 | 139.77574 | 28 ft | 17 kts | 240° |
| 2026-05-08 11:26 | 35.55903 | 139.77459 | 28 ft | 13 kts | 239° |
| 2026-05-08 11:27 | 35.55861 | 139.77371 | 28 ft | 12 kts | 239° |
| 2026-05-08 11:27 | 35.55806 | 139.77301 | 28 ft | 12 kts | 212° |
| 2026-05-08 11:27 | 35.55738 | 139.77248 | 28 ft | 12 kts | 213° |
| 2026-05-08 11:27 | 35.55671 | 139.77194 | 28 ft | 10 kts | 214° |
| 2026-05-08 11:28 | 35.55621 | 139.77181 | 28 ft | 7 kts | 167° |
| 2026-05-08 11:28 | 35.55592 | 139.77199 | 28 ft | 0 kts | 150° |
| 2026-05-08 11:28 | 35.55591 | 139.77199 | 28 ft | 1 kts | 150° |
| 2026-05-08 11:29 | 35.55435 | 139.77309 | 28 ft | 68 kts | 150° |
| 2026-05-08 11:29 | 35.54719 | 139.77810 | 31 ft | 165 kts | 152° |
| 2026-05-08 11:29 | 35.53670 | 139.78585 | 789 ft | 167 kts | 154° |
| 2026-05-08 11:29 | 35.52672 | 139.79301 | 2021 ft | 173 kts | 159° |
| 2026-05-08 11:30 | 35.51557 | 139.80059 | 2544 ft | 197 kts | 159° |
| 2026-05-08 11:30 | 35.50256 | 139.80956 | 2792 ft | 231 kts | 157° |
| 2026-05-08 11:30 | 35.48759 | 139.82007 | 3202 ft | 258 kts | 156° |
| 2026-05-08 11:30 | 35.47171 | 139.83138 | 4033 ft | 269 kts | 156° |
| 2026-05-08 11:31 | 35.45535 | 139.84304 | 4943 ft | 274 kts | 156° |
| 2026-05-08 11:31 | 35.43787 | 139.85102 | 5763 ft | 268 kts | 181° |
| 2026-05-08 11:31 | 35.42003 | 139.84729 | 6680 ft | 259 kts | 208° |
| 2026-05-08 11:31 | 35.40507 | 139.83563 | 7706 ft | 254 kts | 220° |
| 2026-05-08 11:32 | 35.39124 | 139.82241 | 8648 ft | 257 kts | 221° |
| 2026-05-08 11:32 | 35.37712 | 139.80864 | 9581 ft | 261 kts | 222° |
| 2026-05-08 11:32 | 35.36279 | 139.79468 | 10469 ft | 266 kts | 222° |
| 2026-05-08 11:32 | 35.34762 | 139.77994 | 10904 ft | 291 kts | 222° |
| 2026-05-08 11:33 | 35.33088 | 139.76376 | 11143 ft | 322 kts | 221° |
| 2026-05-08 11:33 | 35.31258 | 139.74615 | 11571 ft | 343 kts | 221° |
| 2026-05-08 11:33 | 35.29384 | 139.72740 | 12470 ft | 350 kts | 223° |
| 2026-05-08 11:33 | 35.27523 | 139.70791 | 13519 ft | 353 kts | 224° |
| 2026-05-08 11:34 | 35.25680 | 139.68841 | 14421 ft | 357 kts | 224° |
| 2026-05-08 11:34 | 35.23779 | 139.66834 | 15282 ft | 363 kts | 224° |
| 2026-05-08 11:34 | 35.21841 | 139.64798 | 16130 ft | 370 kts | 224° |
| 2026-05-08 11:34 | 35.19869 | 139.62735 | 17012 ft | 375 kts | 223° |
| 2026-05-08 11:35 | 35.17867 | 139.60647 | 17875 ft | 380 kts | 223° |
| 2026-05-08 11:35 | 35.15846 | 139.58541 | 18594 ft | 385 kts | 223° |
| 2026-05-08 11:35 | 35.13817 | 139.56430 | 19349 ft | 387 kts | 223° |
| 2026-05-08 11:35 | 35.11761 | 139.54293 | 19752 ft | 389 kts | 223° |
| 2026-05-08 11:36 | 35.09686 | 139.52120 | 19991 ft | 390 kts | 225° |
| 2026-05-08 11:36 | 35.07961 | 139.49554 | 20527 ft | 394 kts | 240° |
| 2026-05-08 11:36 | 35.06800 | 139.46523 | 21369 ft | 394 kts | 251° |
| 2026-05-08 11:36 | 35.06172 | 139.43249 | 22131 ft | 397 kts | 257° |
| 2026-05-08 11:37 | 35.05660 | 139.39946 | 22770 ft | 403 kts | 257° |
| 2026-05-08 11:37 | 35.05140 | 139.36563 | 23367 ft | 409 kts | 257° |
| 2026-05-08 11:37 | 35.04596 | 139.33137 | 23930 ft | 412 kts | 257° |
| 2026-05-08 11:37 | 35.04030 | 139.29705 | 24587 ft | 413 kts | 256° |
| 2026-05-08 11:38 | 35.03451 | 139.26265 | 25206 ft | 415 kts | 256° |
| 2026-05-08 11:38 | 35.02865 | 139.22797 | 25770 ft | 418 kts | 256° |
| 2026-05-08 11:38 | 35.02282 | 139.19306 | 26326 ft | 421 kts | 256° |
| 2026-05-08 11:38 | 35.01699 | 139.15794 | 26914 ft | 423 kts | 256° |
| 2026-05-08 11:39 | 35.01115 | 139.12271 | 27487 ft | 425 kts | 256° |
| 2026-05-08 11:39 | 35.00533 | 139.08766 | 28009 ft | 428 kts | 256° |
| 2026-05-08 11:39 | 34.99937 | 139.05193 | 28517 ft | 430 kts | 256° |
| 2026-05-08 11:39 | 34.99337 | 139.01599 | 29077 ft | 432 kts | 256° |
| 2026-05-08 11:40 | 34.98811 | 138.97982 | 29544 ft | 435 kts | 259° |
| 2026-05-08 11:40 | 34.98537 | 138.94290 | 30042 ft | 437 kts | 263° |
| 2026-05-08 11:40 | 34.98367 | 138.90613 | 30723 ft | 431 kts | 263° |
| 2026-05-08 11:40 | 34.98194 | 138.87029 | 31352 ft | 426 kts | 263° |
| 2026-05-08 11:41 | 34.98011 | 138.83424 | 31871 ft | 425 kts | 262° |
| 2026-05-08 11:41 | 34.97824 | 138.79823 | 32358 ft | 424 kts | 262° |
| 2026-05-08 11:41 | 34.97633 | 138.76242 | 32902 ft | 422 kts | 262° |
| 2026-05-08 11:41 | 34.97442 | 138.72689 | 33489 ft | 418 kts | 262° |
| 2026-05-08 11:42 | 34.97251 | 138.69160 | 33957 ft | 416 kts | 262° |
| 2026-05-08 11:42 | 34.97059 | 138.65641 | 34295 ft | 416 kts | 262° |
| 2026-05-08 11:42 | 34.96865 | 138.62112 | 34600 ft | 417 kts | 262° |
| 2026-05-08 11:42 | 34.96673 | 138.58630 | 34976 ft | 416 kts | 262° |
| 2026-05-08 11:43 | 34.96479 | 138.55108 | 35317 ft | 415 kts | 262° |
| 2026-05-08 11:43 | 34.96284 | 138.51589 | 35621 ft | 416 kts | 262° |
| 2026-05-08 11:43 | 34.96088 | 138.48078 | 35932 ft | 416 kts | 262° |
| 2026-05-08 11:43 | 34.95891 | 138.44562 | 36295 ft | 414 kts | 262° |
| 2026-05-08 11:44 | 34.95694 | 138.41062 | 36632 ft | 414 kts | 262° |
| 2026-05-08 11:44 | 34.95496 | 138.37561 | 36917 ft | 413 kts | 262° |
| 2026-05-08 11:44 | 34.95297 | 138.34073 | 37220 ft | 413 kts | 262° |
| 2026-05-08 11:44 | 34.95099 | 138.30578 | 37565 ft | 411 kts | 262° |
| 2026-05-08 11:45 | 34.94902 | 138.27136 | 37705 ft | 414 kts | 261° |
| 2026-05-08 11:45 | 34.94491 | 138.20096 | 37779 ft | 415 kts | 261° |
| 2026-05-08 11:46 | 34.94087 | 138.13129 | 37784 ft | 408 kts | 261° |
| 2026-05-08 11:46 | 34.93687 | 138.06290 | 37793 ft | 406 kts | 261° |
| 2026-05-08 11:47 | 34.93349 | 138.00594 | 37798 ft | 404 kts | 261° |
| 2026-05-08 11:47 | 34.92945 | 137.93763 | 37803 ft | 404 kts | 261° |
| 2026-05-08 11:48 | 34.92533 | 137.86910 | 37821 ft | 406 kts | 261° |
| 2026-05-08 11:48 | 34.92118 | 137.80024 | 37827 ft | 407 kts | 261° |
| 2026-05-08 11:49 | 34.91722 | 137.73168 | 37836 ft | 408 kts | 261° |
| 2026-05-08 11:49 | 34.90773 | 137.66406 | 37837 ft | 404 kts | 253° |
| 2026-05-08 11:50 | 34.89115 | 137.59889 | 37842 ft | 402 kts | 248° |
| 2026-05-08 11:50 | 34.87150 | 137.53504 | 37848 ft | 402 kts | 248° |
| 2026-05-08 11:51 | 34.85224 | 137.47158 | 37859 ft | 402 kts | 248° |
| 2026-05-08 11:51 | 34.83369 | 137.40721 | 37865 ft | 402 kts | 249° |
| 2026-05-08 11:52 | 34.81550 | 137.34281 | 37863 ft | 402 kts | 249° |
| 2026-05-08 11:52 | 34.79721 | 137.27853 | 37867 ft | 401 kts | 249° |
| 2026-05-08 11:53 | 34.77898 | 137.21482 | 37875 ft | 400 kts | 249° |
| 2026-05-08 11:53 | 34.76061 | 137.15086 | 37876 ft | 399 kts | 249° |
| 2026-05-08 11:54 | 34.74243 | 137.08766 | 37882 ft | 398 kts | 249° |
| 2026-05-08 11:54 | 34.72415 | 137.02426 | 37890 ft | 397 kts | 249° |
| 2026-05-08 11:55 | 34.70102 | 136.96350 | 37959 ft | 394 kts | 241° |
| 2026-05-08 11:55 | 34.67269 | 136.90765 | 37886 ft | 386 kts | 235° |
| 2026-05-08 11:56 | 34.63970 | 136.85617 | 37886 ft | 387 kts | 233° |
| 2026-05-08 11:56 | 34.60608 | 136.80480 | 37892 ft | 388 kts | 233° |
| 2026-05-08 11:57 | 34.57245 | 136.75328 | 37893 ft | 390 kts | 233° |
| 2026-05-08 11:57 | 34.53896 | 136.70182 | 37898 ft | 391 kts | 233° |
| 2026-05-08 11:58 | 34.50517 | 136.64990 | 37898 ft | 392 kts | 233° |
| 2026-05-08 11:58 | 34.47135 | 136.59797 | 37901 ft | 393 kts | 233° |
| 2026-05-08 11:59 | 34.42060 | 136.52018 | 37907 ft | 394 kts | 233° |
| 2026-05-08 11:59 | 34.38646 | 136.46795 | 37894 ft | 394 kts | 233° |
| 2026-05-08 12:00 | 34.35234 | 136.41583 | 37893 ft | 394 kts | 233° |
| 2026-05-08 12:00 | 34.31850 | 136.36424 | 37893 ft | 393 kts | 234° |
| 2026-05-08 12:01 | 34.28447 | 136.31240 | 37896 ft | 393 kts | 233° |
| 2026-05-08 12:01 | 34.25034 | 136.26048 | 37904 ft | 394 kts | 233° |
| 2026-05-08 12:02 | 34.21616 | 136.20856 | 37897 ft | 396 kts | 233° |
| 2026-05-08 12:02 | 34.18198 | 136.15671 | 37887 ft | 396 kts | 233° |
| 2026-05-08 12:03 | 34.14764 | 136.10474 | 37870 ft | 394 kts | 233° |
| 2026-05-08 12:03 | 34.11345 | 136.05304 | 37896 ft | 393 kts | 234° |
| 2026-05-08 12:04 | 34.07955 | 136.00185 | 37918 ft | 393 kts | 234° |
| 2026-05-08 12:04 | 34.04533 | 135.95026 | 37900 ft | 394 kts | 234° |
| 2026-05-08 12:05 | 34.01123 | 135.89898 | 37897 ft | 390 kts | 233° |
| 2026-05-08 12:05 | 33.97713 | 135.84799 | 37894 ft | 393 kts | 233° |
| 2026-05-08 12:06 | 33.94272 | 135.79648 | 37936 ft | 395 kts | 234° |
| 2026-05-08 12:06 | 33.90816 | 135.74432 | 37902 ft | 397 kts | 234° |
| 2026-05-08 12:07 | 33.87368 | 135.69254 | 37921 ft | 401 kts | 234° |
| 2026-05-08 12:07 | 33.83851 | 135.63995 | 37916 ft | 404 kts | 234° |
| 2026-05-08 12:08 | 33.80333 | 135.58714 | 37876 ft | 401 kts | 234° |
| 2026-05-08 12:08 | 33.76863 | 135.53561 | 37895 ft | 398 kts | 234° |
| 2026-05-08 12:09 | 33.73385 | 135.48395 | 37865 ft | 397 kts | 234° |
| 2026-05-08 12:09 | 33.69913 | 135.43234 | 37880 ft | 397 kts | 234° |
| 2026-05-08 12:10 | 33.66430 | 135.38064 | 37889 ft | 398 kts | 234° |
| 2026-05-08 12:10 | 33.62958 | 135.32918 | 37908 ft | 399 kts | 234° |
| 2026-05-08 12:11 | 33.59450 | 135.27725 | 37916 ft | 401 kts | 234° |
| 2026-05-08 12:11 | 33.55932 | 135.22527 | 37921 ft | 402 kts | 234° |
| 2026-05-08 12:12 | 33.52425 | 135.17351 | 37921 ft | 402 kts | 234° |
| 2026-05-08 12:12 | 33.48894 | 135.12146 | 37936 ft | 402 kts | 234° |
| 2026-05-08 12:13 | 33.45349 | 135.06928 | 37949 ft | 402 kts | 234° |
| 2026-05-08 12:13 | 33.41834 | 135.01761 | 37955 ft | 402 kts | 234° |
| 2026-05-08 12:14 | 33.38301 | 134.96566 | 37956 ft | 402 kts | 234° |
| 2026-05-08 12:14 | 33.34766 | 134.91346 | 37959 ft | 402 kts | 234° |
| 2026-05-08 12:15 | 33.31257 | 134.86170 | 37952 ft | 402 kts | 234° |
| 2026-05-08 12:15 | 33.27727 | 134.80973 | 37956 ft | 402 kts | 234° |
| 2026-05-08 12:16 | 33.24198 | 134.75785 | 37955 ft | 402 kts | 234° |
| 2026-05-08 12:16 | 33.20654 | 134.70582 | 37957 ft | 403 kts | 234° |
| 2026-05-08 12:17 | 33.17549 | 134.65124 | 37959 ft | 399 kts | 243° |
| 2026-05-08 12:17 | 33.15116 | 134.59164 | 37959 ft | 399 kts | 249° |
| 2026-05-08 12:18 | 33.13433 | 134.52851 | 37957 ft | 399 kts | 253° |
| 2026-05-08 12:18 | 33.11913 | 134.46514 | 37959 ft | 399 kts | 253° |
| 2026-05-08 12:19 | 33.10357 | 134.40141 | 37959 ft | 400 kts | 253° |
| 2026-05-08 12:19 | 33.08781 | 134.33777 | 37960 ft | 400 kts | 253° |
| 2026-05-08 12:20 | 33.07198 | 134.27407 | 37963 ft | 401 kts | 253° |
| 2026-05-08 12:20 | 33.05616 | 134.21030 | 37967 ft | 401 kts | 253° |
| 2026-05-08 12:21 | 33.04068 | 134.14633 | 37971 ft | 401 kts | 253° |
| 2026-05-08 12:21 | 33.02535 | 134.08281 | 37972 ft | 401 kts | 253° |
| 2026-05-08 12:22 | 33.00984 | 134.01885 | 37971 ft | 401 kts | 253° |
| 2026-05-08 12:22 | 32.99434 | 133.95520 | 37977 ft | 402 kts | 253° |
| 2026-05-08 12:23 | 32.97872 | 133.89120 | 37981 ft | 402 kts | 253° |
| 2026-05-08 12:23 | 32.96305 | 133.82719 | 37985 ft | 402 kts | 254° |
| 2026-05-08 12:24 | 32.94733 | 133.76310 | 37986 ft | 403 kts | 254° |
| 2026-05-08 12:24 | 32.93159 | 133.69909 | 37986 ft | 403 kts | 254° |
| 2026-05-08 12:25 | 32.91591 | 133.63547 | 37987 ft | 403 kts | 254° |
| 2026-05-08 12:25 | 32.90006 | 133.57132 | 37994 ft | 403 kts | 254° |
| 2026-05-08 12:26 | 32.88417 | 133.50736 | 37990 ft | 403 kts | 254° |
| 2026-05-08 12:26 | 32.86834 | 133.44384 | 37996 ft | 403 kts | 254° |
| 2026-05-08 12:27 | 32.85238 | 133.37994 | 37997 ft | 403 kts | 254° |
| 2026-05-08 12:27 | 32.83639 | 133.31607 | 38000 ft | 403 kts | 254° |
| 2026-05-08 12:28 | 32.82036 | 133.25213 | 38000 ft | 403 kts | 254° |
| 2026-05-08 12:28 | 32.80432 | 133.18833 | 38004 ft | 403 kts | 254° |
| 2026-05-08 12:29 | 32.78832 | 133.12484 | 38005 ft | 402 kts | 254° |
| 2026-05-08 12:29 | 32.77222 | 133.06108 | 38010 ft | 402 kts | 254° |
| 2026-05-08 12:30 | 32.75311 | 132.99849 | 38001 ft | 403 kts | 248° |
| 2026-05-08 12:30 | 32.72707 | 132.93939 | 38008 ft | 405 kts | 242° |
| 2026-05-08 12:31 | 32.69777 | 132.88227 | 38012 ft | 406 kts | 242° |
| 2026-05-08 12:31 | 32.66828 | 132.82508 | 38005 ft | 406 kts | 242° |
| 2026-05-08 12:32 | 32.63902 | 132.76811 | 38003 ft | 406 kts | 242° |
| 2026-05-08 12:32 | 32.60956 | 132.71069 | 38015 ft | 408 kts | 242° |
| 2026-05-08 12:33 | 32.57979 | 132.65267 | 38020 ft | 415 kts | 242° |
| 2026-05-08 12:33 | 32.55030 | 132.59540 | 37979 ft | 396 kts | 242° |
| 2026-05-08 12:34 | 32.52141 | 132.53930 | 37865 ft | 395 kts | 242° |
| 2026-05-08 12:34 | 32.50733 | 132.51203 | 37624 ft | 380 kts | 242° |
| 2026-05-08 12:34 | 32.49368 | 132.48564 | 37155 ft | 371 kts | 242° |
| 2026-05-08 12:35 | 32.48478 | 132.46839 | 36812 ft | 366 kts | 242° |
| 2026-05-08 12:35 | 32.47163 | 132.44291 | 36290 ft | 359 kts | 242° |
| 2026-05-08 12:35 | 32.45449 | 132.40971 | 35600 ft | 354 kts | 241° |
| 2026-05-08 12:35 | 32.44167 | 132.38489 | 35020 ft | 352 kts | 241° |
| 2026-05-08 12:36 | 32.43308 | 132.36829 | 34643 ft | 350 kts | 240° |
| 2026-05-08 12:36 | 32.41631 | 132.33589 | 33908 ft | 346 kts | 240° |
| 2026-05-08 12:36 | 32.40800 | 132.31985 | 33504 ft | 344 kts | 240° |
| 2026-05-08 12:36 | 32.39550 | 132.29572 | 32876 ft | 346 kts | 240° |
| 2026-05-08 12:37 | 32.38282 | 132.27126 | 32260 ft | 349 kts | 240° |
| 2026-05-08 12:37 | 32.37008 | 132.24674 | 31662 ft | 350 kts | 241° |
| 2026-05-08 12:37 | 32.35728 | 132.22210 | 31055 ft | 351 kts | 241° |
| 2026-05-08 12:37 | 32.34443 | 132.19740 | 30469 ft | 352 kts | 241° |
| 2026-05-08 12:38 | 32.33159 | 132.17273 | 29863 ft | 353 kts | 241° |
| 2026-05-08 12:38 | 32.31882 | 132.14820 | 29206 ft | 354 kts | 241° |
| 2026-05-08 12:38 | 32.30593 | 132.12344 | 28540 ft | 354 kts | 241° |
| 2026-05-08 12:38 | 32.29300 | 132.09863 | 27919 ft | 354 kts | 241° |
| 2026-05-08 12:39 | 32.28007 | 132.07384 | 27286 ft | 354 kts | 241° |
| 2026-05-08 12:39 | 32.26715 | 132.04908 | 26678 ft | 353 kts | 241° |
| 2026-05-08 12:39 | 32.25421 | 132.02427 | 26122 ft | 362 kts | 241° |
| 2026-05-08 12:39 | 32.24079 | 131.99854 | 25223 ft | 372 kts | 241° |
| 2026-05-08 12:40 | 32.22709 | 131.97232 | 24430 ft | 376 kts | 241° |
| 2026-05-08 12:40 | 32.21334 | 131.94604 | 23674 ft | 377 kts | 241° |
| 2026-05-08 12:40 | 32.19951 | 131.91965 | 22840 ft | 378 kts | 241° |
| 2026-05-08 12:40 | 32.18562 | 131.89313 | 22045 ft | 378 kts | 242° |
| 2026-05-08 12:41 | 32.17194 | 131.86703 | 21347 ft | 377 kts | 241° |
| 2026-05-08 12:41 | 32.15818 | 131.84082 | 20688 ft | 375 kts | 242° |
| 2026-05-08 12:41 | 32.14445 | 131.81467 | 20193 ft | 372 kts | 242° |
| 2026-05-08 12:41 | 32.13083 | 131.78875 | 19617 ft | 371 kts | 242° |
| 2026-05-08 12:42 | 32.11717 | 131.76274 | 18973 ft | 371 kts | 242° |
| 2026-05-08 12:42 | 32.10381 | 131.73733 | 18540 ft | 367 kts | 242° |
| 2026-05-08 12:42 | 32.09031 | 131.71165 | 18096 ft | 368 kts | 242° |
| 2026-05-08 12:42 | 32.07673 | 131.68581 | 17643 ft | 370 kts | 241° |
| 2026-05-08 12:43 | 32.06312 | 131.65994 | 17201 ft | 371 kts | 241° |
| 2026-05-08 12:43 | 32.04973 | 131.63452 | 16761 ft | 368 kts | 241° |
| 2026-05-08 12:43 | 32.03622 | 131.60891 | 16356 ft | 366 kts | 241° |
| 2026-05-08 12:43 | 32.02275 | 131.58337 | 15940 ft | 364 kts | 241° |
| 2026-05-08 12:44 | 32.00940 | 131.55807 | 15528 ft | 363 kts | 241° |
| 2026-05-08 12:44 | 31.99609 | 131.53286 | 15131 ft | 362 kts | 241° |
| 2026-05-08 12:44 | 31.98296 | 131.50800 | 14716 ft | 361 kts | 241° |
| 2026-05-08 12:44 | 31.96970 | 131.48292 | 14315 ft | 360 kts | 241° |
| 2026-05-08 12:45 | 31.95645 | 131.45789 | 13902 ft | 359 kts | 241° |
| 2026-05-08 12:45 | 31.94320 | 131.43288 | 13422 ft | 359 kts | 241° |
| 2026-05-08 12:45 | 31.92990 | 131.40791 | 12989 ft | 358 kts | 241° |
| 2026-05-08 12:45 | 31.91669 | 131.38319 | 12573 ft | 357 kts | 241° |
| 2026-05-08 12:46 | 31.90350 | 131.35848 | 12169 ft | 355 kts | 241° |
| 2026-05-08 12:46 | 31.89039 | 131.33397 | 11775 ft | 350 kts | 240° |
| 2026-05-08 12:46 | 31.87771 | 131.31025 | 11388 ft | 344 kts | 240° |
| 2026-05-08 12:46 | 31.86505 | 131.28660 | 11011 ft | 338 kts | 240° |
| 2026-05-08 12:47 | 31.85263 | 131.26339 | 10653 ft | 333 kts | 240° |
| 2026-05-08 12:47 | 31.84032 | 131.24040 | 10283 ft | 330 kts | 240° |
| 2026-05-08 12:47 | 31.82837 | 131.21809 | 9886 ft | 310 kts | 240° |
| 2026-05-08 12:47 | 31.81725 | 131.19740 | 9429 ft | 290 kts | 241° |
| 2026-05-08 12:48 | 31.80672 | 131.17780 | 8883 ft | 278 kts | 241° |
| 2026-05-08 12:48 | 31.79653 | 131.15871 | 8243 ft | 273 kts | 241° |
| 2026-05-08 12:48 | 31.78677 | 131.14052 | 8107 ft | 257 kts | 241° |
| 2026-05-08 12:48 | 31.77706 | 131.12239 | 8116 ft | 271 kts | 241° |
| 2026-05-08 12:49 | 31.76681 | 131.10321 | 8050 ft | 283 kts | 241° |
| 2026-05-08 12:49 | 31.75616 | 131.08337 | 7701 ft | 286 kts | 241° |
| 2026-05-08 12:49 | 31.74578 | 131.06415 | 7362 ft | 271 kts | 241° |
| 2026-05-08 12:49 | 31.73587 | 131.04575 | 7073 ft | 265 kts | 242° |
| 2026-05-08 12:50 | 31.72604 | 131.02745 | 6791 ft | 262 kts | 242° |
| 2026-05-08 12:50 | 31.71656 | 131.00980 | 6518 ft | 255 kts | 242° |
| 2026-05-08 12:50 | 31.70719 | 130.99235 | 6198 ft | 249 kts | 241° |
| 2026-05-08 12:50 | 31.69799 | 130.97522 | 5890 ft | 247 kts | 242° |
| 2026-05-08 12:51 | 31.68875 | 130.95802 | 5624 ft | 251 kts | 243° |
| 2026-05-08 12:51 | 31.67037 | 130.92333 | 5045 ft | 248 kts | 248° |
| 2026-05-08 12:51 | 31.66508 | 130.90436 | 4764 ft | 242 kts | 261° |
| 2026-05-08 12:52 | 31.66171 | 130.88542 | 4461 ft | 232 kts | 265° |
| 2026-05-08 12:52 | 31.66284 | 130.85016 | 3965 ft | 206 kts | 290° |
| 2026-05-08 12:52 | 31.66764 | 130.83475 | 3741 ft | 198 kts | 296° |
| 2026-05-08 12:53 | 31.67233 | 130.81978 | 3541 ft | 193 kts | 295° |
| 2026-05-08 12:53 | 31.67807 | 130.80592 | 3262 ft | 188 kts | 316° |
| 2026-05-08 12:53 | 31.68845 | 130.79692 | 3108 ft | 187 kts | 332° |
| 2026-05-08 12:53 | 31.69966 | 130.78949 | 2899 ft | 177 kts | 333° |
| 2026-05-08 12:54 | 31.71012 | 130.78250 | 2717 ft | 174 kts | 332° |
| 2026-05-08 12:54 | 31.72030 | 130.77565 | 2493 ft | 162 kts | 332° |
| 2026-05-08 12:54 | 31.72925 | 130.76958 | 2257 ft | 138 kts | 330° |
| 2026-05-08 12:54 | 31.73729 | 130.76401 | 2119 ft | 131 kts | 330° |
| 2026-05-08 12:55 | 31.74522 | 130.75878 | 1927 ft | 133 kts | 331° |
| 2026-05-08 12:55 | 31.75333 | 130.75330 | 1733 ft | 135 kts | 330° |
| 2026-05-08 12:55 | 31.76152 | 130.74769 | 1542 ft | 136 kts | 327° |
| 2026-05-08 12:55 | 31.76954 | 130.74224 | 1396 ft | 134 kts | 330° |
| 2026-05-08 12:56 | 31.77760 | 130.73684 | 1223 ft | 134 kts | 331° |
| 2026-05-08 12:56 | 31.78569 | 130.73144 | 1097 ft | 135 kts | 329° |
| 2026-05-08 12:56 | 31.79382 | 130.72587 | 922 ft | 133 kts | 329° |
| 2026-05-08 12:56 | 31.80062 | 130.72125 | 906 ft | 60 kts | 330° |
| 2026-05-08 12:57 | 31.80312 | 130.71957 | 908 ft | 38 kts | 330° |
| 2026-05-08 12:57 | 31.80454 | 130.71861 | 908 ft | 20 kts | 330° |
| 2026-05-08 12:57 | 31.80510 | 130.71796 | 907 ft | 9 kts | 287° |
| 2026-05-08 12:57 | 31.80492 | 130.71715 | 900 ft | 8 kts | 240° |
| 2026-05-08 12:58 | 31.80452 | 130.71665 | 897 ft | 9 kts | 210° |
| 2026-05-08 12:58 | 31.80402 | 130.71665 | 896 ft | 7 kts | 158° |
| 2026-05-08 12:58 | 31.80357 | 130.71694 | 896 ft | 7 kts | 150° |
| 2026-05-08 12:58 | 31.80312 | 130.71724 | 897 ft | 7 kts | 150° |
| 2026-05-08 12:59 | 31.80269 | 130.71718 | 896 ft | 7 kts | 216° |
| 2026-05-08 12:59 | 31.80238 | 130.71671 | 895 ft | 6 kts | 237° |
| 2026-05-08 12:59 | 31.80222 | 130.71642 | 895 ft | 2 kts | 238° |
| 2026-05-08 12:59 | 31.80220 | 130.71637 | 895 ft | 0 kts | 238° |